createdAt,value
2017-08-16T00:00:35.651Z,1012.26
2017-08-16T00:01:16.543Z,1012.25
2017-08-16T00:01:57.436Z,1012.28
2017-08-16T00:02:38.331Z,1012.25
2017-08-16T00:03:19.232Z,1012.26
2017-08-16T00:04:00.138Z,1012.23
2017-08-16T00:04:41.028Z,1012.25
2017-08-16T00:05:21.924Z,1012.24
2017-08-16T00:06:02.819Z,1012.24
2017-08-16T00:06:43.718Z,1012.23
2017-08-16T00:07:24.614Z,1012.23
2017-08-16T00:08:05.517Z,1012.2
2017-08-16T00:08:46.416Z,1012.21
2017-08-16T00:09:27.321Z,1012.16
2017-08-16T00:10:08.233Z,1012.19
2017-08-16T00:10:49.127Z,1012.2
2017-08-16T00:11:30.015Z,1012.2
2017-08-16T00:12:10.898Z,1012.2
2017-08-16T00:12:51.785Z,1012.19
2017-08-16T00:13:32.680Z,1012.2
2017-08-16T00:14:13.583Z,1012.22
2017-08-16T00:14:54.473Z,1012.21
2017-08-16T00:15:35.367Z,1012.21
2017-08-16T00:16:16.293Z,1012.22
2017-08-16T00:16:57.190Z,1012.22
2017-08-16T00:17:38.070Z,1012.21
2017-08-16T00:18:18.960Z,1012.22
2017-08-16T00:18:59.856Z,1012.24
2017-08-16T00:19:40.749Z,1012.25
2017-08-16T00:20:21.653Z,1012.24
2017-08-16T00:21:02.547Z,1012.23
2017-08-16T00:21:43.429Z,1012.2
2017-08-16T00:22:24.323Z,1012.19
2017-08-16T00:23:05.219Z,1012.21
2017-08-16T00:23:46.128Z,1012.23
2017-08-16T00:24:26.994Z,1012.24
2017-08-16T00:25:07.888Z,1012.21
2017-08-16T00:25:48.780Z,1012.22
2017-08-16T00:26:29.673Z,1012.19
2017-08-16T00:27:10.588Z,1012.19
2017-08-16T00:27:51.489Z,1012.21
2017-08-16T00:28:32.386Z,1012.15
2017-08-16T00:29:13.282Z,1012.15
2017-08-16T00:29:54.199Z,1012.17
2017-08-16T00:30:35.070Z,1012.18
2017-08-16T00:31:15.958Z,1012.2
2017-08-16T00:31:56.850Z,1012.2
2017-08-16T00:32:37.772Z,1012.17
2017-08-16T00:33:18.660Z,1012.21
2017-08-16T00:33:59.585Z,1012.22
2017-08-16T00:34:40.466Z,1012.25
2017-08-16T00:35:21.349Z,1012.23
2017-08-16T00:36:02.298Z,1012.27
2017-08-16T00:36:43.196Z,1012.23
2017-08-16T00:37:24.092Z,1012.21
2017-08-16T00:38:04.973Z,1012.19
2017-08-16T00:38:45.876Z,1012.21
2017-08-16T00:39:26.762Z,1012.24
2017-08-16T00:40:07.658Z,1012.19
2017-08-16T00:40:48.555Z,1012.23
2017-08-16T00:41:29.440Z,1012.21
2017-08-16T00:42:10.323Z,1012.21
2017-08-16T00:42:51.223Z,1012.24
2017-08-16T00:43:32.119Z,1012.26
2017-08-16T00:44:13.006Z,1012.25
2017-08-16T00:44:53.893Z,1012.27
2017-08-16T00:45:34.799Z,1012.28
2017-08-16T00:46:15.694Z,1012.3
2017-08-16T00:46:56.617Z,1012.31
2017-08-16T00:47:37.517Z,1012.32
2017-08-16T00:48:18.421Z,1012.33
2017-08-16T00:48:59.315Z,1012.33
2017-08-16T00:49:40.222Z,1012.36
2017-08-16T00:50:21.103Z,1012.37
2017-08-16T00:51:01.990Z,1012.37
2017-08-16T00:51:42.891Z,1012.4
2017-08-16T00:52:23.782Z,1012.36
2017-08-16T00:53:04.670Z,1012.34
2017-08-16T00:53:45.573Z,1012.35
2017-08-16T00:54:26.468Z,1012.32
2017-08-16T00:55:07.359Z,1012.31
2017-08-16T00:55:48.272Z,1012.33
2017-08-16T00:56:29.166Z,1012.32
2017-08-16T00:57:10.071Z,1012.3
2017-08-16T00:57:50.959Z,1012.31
2017-08-16T00:58:31.855Z,1012.28
2017-08-16T00:59:12.763Z,1012.27
2017-08-16T00:59:53.648Z,1012.28
2017-08-16T01:00:34.544Z,1012.3
2017-08-16T01:01:15.445Z,1012.29
2017-08-16T01:01:56.323Z,1012.3
2017-08-16T01:02:37.241Z,1012.28
2017-08-16T01:03:18.121Z,1012.3
2017-08-16T01:03:59.025Z,1012.31
2017-08-16T01:04:39.920Z,1012.31
2017-08-16T01:05:20.796Z,1012.32
2017-08-16T01:06:01.691Z,1012.32
2017-08-16T01:06:42.586Z,1012.34
2017-08-16T01:07:23.472Z,1012.37
2017-08-16T01:08:04.361Z,1012.38
2017-08-16T01:08:45.288Z,1012.34
2017-08-16T01:09:26.177Z,1012.39
2017-08-16T01:10:07.098Z,1012.39
2017-08-16T01:10:47.988Z,1012.44
2017-08-16T01:11:28.878Z,1012.45
2017-08-16T01:12:09.777Z,1012.46
2017-08-16T01:12:50.666Z,1012.46
2017-08-16T01:13:31.574Z,1012.53
2017-08-16T01:14:12.472Z,1012.5
2017-08-16T01:14:53.363Z,1012.51
2017-08-16T01:15:48.793Z,1012.45
2017-08-16T01:16:29.692Z,1012.47
2017-08-16T01:17:10.590Z,1012.45
2017-08-16T01:17:51.487Z,1012.47
2017-08-16T01:18:32.378Z,1012.48
2017-08-16T01:19:13.269Z,1012.47
2017-08-16T01:19:54.165Z,1012.52
2017-08-16T01:20:35.057Z,1012.54
2017-08-16T01:21:15.961Z,1012.55
2017-08-16T01:21:56.854Z,1012.59
2017-08-16T01:22:37.770Z,1012.57
2017-08-16T01:23:18.664Z,1012.6
2017-08-16T01:23:59.549Z,1012.58
2017-08-16T01:24:40.453Z,1012.59
2017-08-16T01:25:21.357Z,1012.57
2017-08-16T01:26:02.244Z,1012.58
2017-08-16T01:26:43.152Z,1012.59
2017-08-16T01:27:24.035Z,1012.56
2017-08-16T01:28:04.924Z,1012.62
2017-08-16T01:28:45.825Z,1012.58
2017-08-16T01:29:26.721Z,1012.58
2017-08-16T01:30:07.617Z,1012.59
2017-08-16T01:30:48.512Z,1012.57
2017-08-16T01:31:29.400Z,1012.57
2017-08-16T01:32:10.317Z,1012.55
2017-08-16T01:32:51.204Z,1012.55
2017-08-16T01:33:32.102Z,1012.49
2017-08-16T01:34:13.022Z,1012.51
2017-08-16T01:34:53.887Z,1012.48
2017-08-16T01:35:34.784Z,1012.47
2017-08-16T01:36:15.674Z,1012.45
2017-08-16T01:36:56.571Z,1012.42
2017-08-16T01:37:37.482Z,1012.41
2017-08-16T01:38:18.373Z,1012.37
2017-08-16T01:38:59.259Z,1012.35
2017-08-16T01:39:40.165Z,1012.37
2017-08-16T01:40:21.050Z,1012.34
2017-08-16T01:41:01.933Z,1012.32
2017-08-16T01:41:42.839Z,1012.35
2017-08-16T01:42:23.729Z,1012.29
2017-08-16T01:43:04.628Z,1012.31
2017-08-16T01:43:45.524Z,1012.36
2017-08-16T01:44:26.409Z,1012.35
2017-08-16T01:45:07.304Z,1012.37
2017-08-16T01:45:48.201Z,1012.4
2017-08-16T01:46:29.098Z,1012.42
2017-08-16T01:47:09.966Z,1012.41
2017-08-16T01:47:50.868Z,1012.45
2017-08-16T01:48:31.753Z,1012.42
2017-08-16T01:49:12.649Z,1012.42
2017-08-16T01:49:53.545Z,1012.48
2017-08-16T01:50:34.434Z,1012.46
2017-08-16T01:51:15.318Z,1012.45
2017-08-16T01:51:56.200Z,1012.44
2017-08-16T01:52:37.098Z,1012.45
2017-08-16T01:53:17.974Z,1012.45
2017-08-16T01:53:58.921Z,1012.48
2017-08-16T01:54:39.809Z,1012.45
2017-08-16T01:55:20.712Z,1012.49
2017-08-16T01:56:01.600Z,1012.47
2017-08-16T01:56:42.490Z,1012.48
2017-08-16T01:57:23.401Z,1012.48
2017-08-16T01:58:04.282Z,1012.51
2017-08-16T01:58:45.159Z,1012.55
2017-08-16T01:59:26.061Z,1012.54
2017-08-16T02:00:06.955Z,1012.6
2017-08-16T02:00:47.850Z,1012.56
2017-08-16T02:01:28.746Z,1012.57
2017-08-16T02:02:09.629Z,1012.56
2017-08-16T02:02:50.528Z,1012.55
2017-08-16T02:03:31.418Z,1012.57
2017-08-16T02:04:12.305Z,1012.59
2017-08-16T02:04:53.198Z,1012.58
2017-08-16T02:05:34.089Z,1012.59
2017-08-16T02:06:14.992Z,1012.6
2017-08-16T02:06:55.870Z,1012.61
2017-08-16T02:07:36.768Z,1012.54
2017-08-16T02:08:17.659Z,1012.57
2017-08-16T02:08:58.550Z,1012.61
2017-08-16T02:09:39.440Z,1012.61
2017-08-16T02:10:20.347Z,1012.6
2017-08-16T02:11:01.222Z,1012.56
2017-08-16T02:11:42.118Z,1012.55
2017-08-16T02:12:23.009Z,1012.6
2017-08-16T02:13:03.913Z,1012.58
2017-08-16T02:13:44.799Z,1012.62
2017-08-16T02:14:25.692Z,1012.61
2017-08-16T02:15:06.614Z,1012.65
2017-08-16T02:15:47.496Z,1012.66
2017-08-16T02:16:28.394Z,1012.64
2017-08-16T02:17:09.293Z,1012.65
2017-08-16T02:17:50.193Z,1012.63
2017-08-16T02:18:31.076Z,1012.63
2017-08-16T02:19:11.969Z,1012.63
2017-08-16T02:19:52.864Z,1012.62
2017-08-16T02:20:33.760Z,1012.64
2017-08-16T02:21:14.663Z,1012.65
2017-08-16T02:21:55.545Z,1012.68
2017-08-16T02:22:36.444Z,1012.71
2017-08-16T02:23:17.340Z,1012.68
2017-08-16T02:23:58.260Z,1012.64
2017-08-16T02:24:39.146Z,1012.68
2017-08-16T02:25:20.032Z,1012.68
2017-08-16T02:26:00.927Z,1012.68
2017-08-16T02:26:41.821Z,1012.67
2017-08-16T02:27:22.715Z,1012.67
2017-08-16T02:28:03.590Z,1012.69
2017-08-16T02:28:44.485Z,1012.66
2017-08-16T02:29:25.387Z,1012.67
2017-08-16T02:30:06.280Z,1012.65
2017-08-16T02:30:47.171Z,1012.63
2017-08-16T02:31:28.062Z,1012.58
2017-08-16T02:32:08.954Z,1012.62
2017-08-16T02:32:49.884Z,1012.58
2017-08-16T02:33:30.739Z,1012.53
2017-08-16T02:34:11.618Z,1012.53
2017-08-16T02:34:52.520Z,1012.53
2017-08-16T02:35:33.430Z,1012.55
2017-08-16T02:36:14.332Z,1012.56
2017-08-16T02:36:55.221Z,1012.53
2017-08-16T02:37:36.108Z,1012.55
2017-08-16T02:38:17.005Z,1012.53
2017-08-16T02:38:57.910Z,1012.57
2017-08-16T02:39:38.782Z,1012.57
2017-08-16T02:40:19.683Z,1012.5
2017-08-16T02:41:00.595Z,1012.54
2017-08-16T02:41:41.461Z,1012.55
2017-08-16T02:42:22.362Z,1012.55
2017-08-16T02:43:03.250Z,1012.53
2017-08-16T02:43:44.135Z,1012.51
2017-08-16T02:44:25.035Z,1012.54
2017-08-16T02:45:05.938Z,1012.59
2017-08-16T02:45:46.832Z,1012.6
2017-08-16T02:46:27.741Z,1012.57
2017-08-16T02:47:08.628Z,1012.6
2017-08-16T02:47:49.529Z,1012.58
2017-08-16T02:48:30.440Z,1012.6
2017-08-16T02:49:11.344Z,1012.6
2017-08-16T02:49:52.240Z,1012.61
2017-08-16T02:50:33.138Z,1012.59
2017-08-16T02:51:14.058Z,1012.61
2017-08-16T02:51:54.940Z,1012.62
2017-08-16T02:52:35.842Z,1012.63
2017-08-16T02:53:16.726Z,1012.63
2017-08-16T02:53:57.632Z,1012.61
2017-08-16T02:54:38.536Z,1012.62
2017-08-16T02:55:19.432Z,1012.62
2017-08-16T02:56:00.331Z,1012.64
2017-08-16T02:56:41.221Z,1012.64
2017-08-16T02:57:22.134Z,1012.6
2017-08-16T02:58:03.030Z,1012.65
2017-08-16T02:58:43.952Z,1012.61
2017-08-16T02:59:24.857Z,1012.63
2017-08-16T03:00:05.753Z,1012.6
2017-08-16T03:00:46.654Z,1012.57
2017-08-16T03:01:27.559Z,1012.59
2017-08-16T03:02:08.447Z,1012.59
2017-08-16T03:02:49.352Z,1012.61
2017-08-16T03:03:30.253Z,1012.63
2017-08-16T03:04:11.150Z,1012.66
2017-08-16T03:04:52.043Z,1012.72
2017-08-16T03:05:32.945Z,1012.7
2017-08-16T03:06:13.843Z,1012.72
2017-08-16T03:06:54.745Z,1012.72
2017-08-16T03:07:35.667Z,1012.7
2017-08-16T03:08:16.570Z,1012.66
2017-08-16T03:08:57.468Z,1012.66
2017-08-16T03:09:38.358Z,1012.63
2017-08-16T03:10:19.258Z,1012.69
2017-08-16T03:11:00.160Z,1012.7
2017-08-16T03:11:41.049Z,1012.66
2017-08-16T03:12:21.948Z,1012.73
2017-08-16T03:13:02.848Z,1012.73
2017-08-16T03:13:43.736Z,1012.81
2017-08-16T03:14:24.665Z,1012.79
2017-08-16T03:15:05.555Z,1012.85
2017-08-16T03:15:46.436Z,1012.8
2017-08-16T03:16:27.324Z,1012.83
2017-08-16T03:17:08.217Z,1012.85
2017-08-16T03:17:49.109Z,1012.89
2017-08-16T03:18:30.014Z,1012.93
2017-08-16T03:19:10.903Z,1012.92
2017-08-16T03:19:51.797Z,1012.95
2017-08-16T03:20:32.692Z,1012.94
2017-08-16T03:21:13.582Z,1012.94
2017-08-16T03:21:54.486Z,1012.99
2017-08-16T03:22:35.434Z,1013.03
2017-08-16T03:23:16.281Z,1012.96
2017-08-16T03:23:57.176Z,1013.02
2017-08-16T03:24:38.070Z,1013.04
2017-08-16T03:25:18.957Z,1013
2017-08-16T03:25:59.865Z,1013.02
2017-08-16T03:26:40.767Z,1013.04
2017-08-16T03:27:21.658Z,1013.03
2017-08-16T03:28:02.565Z,1013.06
2017-08-16T03:28:43.454Z,1013.06
2017-08-16T03:29:24.330Z,1013.07
2017-08-16T03:30:05.243Z,1013.1
2017-08-16T03:30:46.131Z,1013.06
2017-08-16T03:31:27.026Z,1013.04
2017-08-16T03:32:07.922Z,1013.05
2017-08-16T03:32:48.816Z,1013.08
2017-08-16T03:33:29.717Z,1013.11
2017-08-16T03:34:10.613Z,1013.09
2017-08-16T03:34:51.500Z,1013.06
2017-08-16T03:35:32.391Z,1013.06
2017-08-16T03:36:13.290Z,1013.06
2017-08-16T03:36:54.178Z,1013.04
2017-08-16T03:37:35.064Z,1013.08
2017-08-16T03:38:15.968Z,1013.1
2017-08-16T03:38:56.864Z,1013.06
2017-08-16T03:39:37.835Z,1013.1
2017-08-16T03:40:18.700Z,1013.04
2017-08-16T03:40:59.548Z,1013.07
2017-08-16T03:41:40.456Z,1013.03
2017-08-16T03:42:21.347Z,1013.05
2017-08-16T03:43:02.228Z,1013.04
2017-08-16T03:43:43.127Z,1013.02
2017-08-16T03:44:24.011Z,1013.06
2017-08-16T03:45:04.898Z,1013.07
2017-08-16T03:45:45.799Z,1013.09
2017-08-16T03:46:26.696Z,1013.07
2017-08-16T03:47:07.578Z,1013.07
2017-08-16T03:47:48.474Z,1013.13
2017-08-16T03:48:29.369Z,1013.14
2017-08-16T03:49:10.255Z,1013.13
2017-08-16T03:49:51.158Z,1013.1
2017-08-16T03:50:32.047Z,1013.13
2017-08-16T03:51:12.943Z,1013.08
2017-08-16T03:51:53.835Z,1013.12
2017-08-16T03:52:34.722Z,1013.17
2017-08-16T03:53:15.611Z,1013.13
2017-08-16T03:53:56.506Z,1013.15
2017-08-16T03:54:37.403Z,1013.18
2017-08-16T03:55:18.291Z,1013.19
2017-08-16T03:55:59.198Z,1013.2
2017-08-16T03:56:40.095Z,1013.16
2017-08-16T03:57:20.988Z,1013.17
2017-08-16T03:58:01.877Z,1013.15
2017-08-16T03:58:42.764Z,1013.14
2017-08-16T03:59:23.661Z,1013.12
2017-08-16T04:00:04.568Z,1013.16
2017-08-16T04:00:45.465Z,1013.13
2017-08-16T04:01:26.342Z,1013.18
2017-08-16T04:02:07.248Z,1013.14
2017-08-16T04:02:48.115Z,1013.17
2017-08-16T04:03:29.011Z,1013.17
2017-08-16T04:04:09.910Z,1013.18
2017-08-16T04:04:50.796Z,1013.17
2017-08-16T04:05:31.697Z,1013.2
2017-08-16T04:06:12.601Z,1013.22
2017-08-16T04:06:53.489Z,1013.27
2017-08-16T04:07:34.385Z,1013.25
2017-08-16T04:08:15.277Z,1013.24
2017-08-16T04:08:56.169Z,1013.3
2017-08-16T04:09:37.072Z,1013.3
2017-08-16T04:10:17.964Z,1013.34
2017-08-16T04:10:58.854Z,1013.34
2017-08-16T04:11:39.749Z,1013.38
2017-08-16T04:12:20.622Z,1013.4
2017-08-16T04:13:01.536Z,1013.39
2017-08-16T04:13:42.443Z,1013.44
2017-08-16T04:14:23.328Z,1013.42
2017-08-16T04:15:04.224Z,1013.44
2017-08-16T04:15:45.113Z,1013.43
2017-08-16T04:16:26.000Z,1013.43
2017-08-16T04:17:06.882Z,1013.45
2017-08-16T04:17:47.776Z,1013.45
2017-08-16T04:18:28.666Z,1013.47
2017-08-16T04:19:09.560Z,1013.47
2017-08-16T04:19:50.469Z,1013.48
2017-08-16T04:20:31.351Z,1013.49
2017-08-16T04:21:12.258Z,1013.53
2017-08-16T04:21:53.150Z,1013.49
2017-08-16T04:22:34.019Z,1013.55
2017-08-16T04:23:14.919Z,1013.53
2017-08-16T04:23:55.823Z,1013.54
2017-08-16T04:24:36.686Z,1013.53
2017-08-16T04:25:17.583Z,1013.55
2017-08-16T04:25:58.472Z,1013.55
2017-08-16T04:26:39.359Z,1013.54
2017-08-16T04:27:20.268Z,1013.56
2017-08-16T04:28:01.156Z,1013.57
2017-08-16T04:28:42.097Z,1013.57
2017-08-16T04:29:22.976Z,1013.64
2017-08-16T04:30:03.858Z,1013.65
2017-08-16T04:30:44.772Z,1013.65
2017-08-16T04:31:25.660Z,1013.65
2017-08-16T04:32:06.543Z,1013.63
2017-08-16T04:32:47.447Z,1013.64
2017-08-16T04:33:28.339Z,1013.63
2017-08-16T04:34:09.228Z,1013.66
2017-08-16T04:34:50.121Z,1013.71
2017-08-16T04:35:31.016Z,1013.74
2017-08-16T04:36:11.909Z,1013.78
2017-08-16T04:36:52.813Z,1013.76
2017-08-16T04:37:33.710Z,1013.78
2017-08-16T04:38:14.618Z,1013.77
2017-08-16T04:38:55.505Z,1013.76
2017-08-16T04:39:36.395Z,1013.78
2017-08-16T04:40:17.294Z,1013.82
2017-08-16T04:40:58.179Z,1013.79
2017-08-16T04:41:39.062Z,1013.81
2017-08-16T04:42:19.951Z,1013.85
2017-08-16T04:43:00.845Z,1013.79
2017-08-16T04:43:41.725Z,1013.89
2017-08-16T04:44:22.613Z,1013.87
2017-08-16T04:45:03.514Z,1013.84
2017-08-16T04:45:44.397Z,1013.86
2017-08-16T04:46:25.291Z,1013.87
2017-08-16T04:47:07.213Z,1013.89
2017-08-16T04:47:48.090Z,1013.88
2017-08-16T04:48:28.958Z,1013.92
2017-08-16T04:49:09.848Z,1013.98
2017-08-16T04:49:50.744Z,1013.9
2017-08-16T04:50:31.622Z,1013.91
2017-08-16T04:51:12.528Z,1013.97
2017-08-16T04:52:45.773Z,1013.98
2017-08-16T04:53:26.672Z,1014.01
2017-08-16T04:54:07.563Z,1014
2017-08-16T04:54:48.448Z,1014.01
2017-08-16T04:55:29.339Z,1013.95
2017-08-16T04:56:10.236Z,1013.96
2017-08-16T04:56:51.107Z,1014.01
2017-08-16T04:57:31.998Z,1013.97
2017-08-16T04:58:12.892Z,1014
2017-08-16T04:58:53.788Z,1013.93
2017-08-16T04:59:34.677Z,1013.94
2017-08-16T05:00:15.566Z,1013.93
2017-08-16T05:00:56.479Z,1013.99
2017-08-16T05:01:37.381Z,1013.97
2017-08-16T05:02:18.344Z,1013.99
2017-08-16T05:02:59.229Z,1013.98
2017-08-16T05:03:40.107Z,1013.97
2017-08-16T05:04:20.979Z,1014
2017-08-16T05:05:01.860Z,1014.01
2017-08-16T05:05:42.770Z,1014.02
2017-08-16T05:06:23.651Z,1014.02
2017-08-16T05:07:04.526Z,1014.03
2017-08-16T05:07:45.416Z,1014.05
2017-08-16T05:08:26.325Z,1014.02
2017-08-16T05:09:07.278Z,1014.04
2017-08-16T05:09:48.148Z,1014.02
2017-08-16T05:10:29.033Z,1014.04
2017-08-16T05:11:09.940Z,1014.06
2017-08-16T05:11:50.819Z,1013.98
2017-08-16T05:12:31.712Z,1014.03
2017-08-16T05:13:12.610Z,1014.04
2017-08-16T05:13:53.545Z,1014.02
2017-08-16T05:14:34.435Z,1014.02
2017-08-16T05:15:15.309Z,1014.02
2017-08-16T05:15:56.189Z,1014
2017-08-16T05:16:37.086Z,1014.01
2017-08-16T05:17:17.980Z,1014.03
2017-08-16T05:17:58.861Z,1014.04
2017-08-16T05:18:39.753Z,1014.07
2017-08-16T05:19:20.642Z,1014.04
2017-08-16T05:20:01.527Z,1014.07
2017-08-16T05:20:42.425Z,1014.08
2017-08-16T05:21:23.401Z,1014.1
2017-08-16T05:22:04.330Z,1014.1
2017-08-16T05:22:45.240Z,1014.15
2017-08-16T05:23:26.126Z,1014.12
2017-08-16T05:24:07.023Z,1014.17
2017-08-16T05:24:47.916Z,1014.14
2017-08-16T05:25:28.806Z,1014.18
2017-08-16T05:26:09.703Z,1014.16
2017-08-16T05:26:50.590Z,1014.17
2017-08-16T05:27:31.479Z,1014.15
2017-08-16T05:28:12.381Z,1014.14
2017-08-16T05:28:53.291Z,1014.08
2017-08-16T05:29:34.177Z,1014.16
2017-08-16T05:30:15.064Z,1014.15
2017-08-16T05:30:55.955Z,1014.19
2017-08-16T05:31:36.831Z,1014.24
2017-08-16T05:32:17.711Z,1014.25
2017-08-16T05:32:58.599Z,1014.26
2017-08-16T05:33:39.486Z,1014.25
2017-08-16T05:34:20.355Z,1014.24
2017-08-16T05:35:01.246Z,1014.26
2017-08-16T05:35:42.177Z,1014.3
2017-08-16T05:36:23.057Z,1014.32
2017-08-16T05:37:03.957Z,1014.35
2017-08-16T05:37:44.843Z,1014.32
2017-08-16T05:38:25.728Z,1014.37
2017-08-16T05:39:06.616Z,1014.43
2017-08-16T05:39:47.513Z,1014.41
2017-08-16T05:40:28.400Z,1014.44
2017-08-16T05:41:09.291Z,1014.43
2017-08-16T05:41:50.189Z,1014.44
2017-08-16T05:42:31.100Z,1014.45
2017-08-16T05:43:12.005Z,1014.46
2017-08-16T05:43:52.888Z,1014.45
2017-08-16T05:44:33.780Z,1014.46
2017-08-16T05:45:14.672Z,1014.47
2017-08-16T05:45:55.559Z,1014.47
2017-08-16T05:46:36.467Z,1014.44
2017-08-16T05:47:17.360Z,1014.49
2017-08-16T05:47:58.252Z,1014.49
2017-08-16T05:48:39.147Z,1014.54
2017-08-16T05:49:20.038Z,1014.58
2017-08-16T05:50:00.935Z,1014.56
2017-08-16T05:50:41.828Z,1014.54
2017-08-16T05:51:22.726Z,1014.54
2017-08-16T05:52:03.611Z,1014.58
2017-08-16T05:52:44.520Z,1014.62
2017-08-16T05:53:25.420Z,1014.61
2017-08-16T05:54:06.302Z,1014.64
2017-08-16T05:54:47.205Z,1014.65
2017-08-16T05:55:28.104Z,1014.67
2017-08-16T05:56:08.986Z,1014.68
2017-08-16T05:56:49.880Z,1014.71
2017-08-16T05:57:30.778Z,1014.72
2017-08-16T05:58:11.667Z,1014.73
2017-08-16T05:58:52.560Z,1014.74
2017-08-16T05:59:33.447Z,1014.72
2017-08-16T06:00:14.342Z,1014.78
2017-08-16T06:00:55.243Z,1014.73
2017-08-16T06:01:36.120Z,1014.75
2017-08-16T06:02:17.014Z,1014.8
2017-08-16T06:02:57.910Z,1014.76
2017-08-16T06:03:38.793Z,1014.81
2017-08-16T06:04:19.714Z,1014.82
2017-08-16T06:05:00.613Z,1014.81
2017-08-16T06:05:41.516Z,1014.8
2017-08-16T06:06:22.415Z,1014.87
2017-08-16T06:07:03.306Z,1014.84
2017-08-16T06:07:44.198Z,1014.84
2017-08-16T06:08:25.074Z,1014.81
2017-08-16T06:09:05.966Z,1014.85
2017-08-16T06:09:46.845Z,1014.83
2017-08-16T06:10:27.740Z,1014.9
2017-08-16T06:11:08.633Z,1014.85
2017-08-16T06:11:49.528Z,1014.85
2017-08-16T06:12:30.428Z,1014.85
2017-08-16T06:13:11.324Z,1014.88
2017-08-16T06:13:52.229Z,1014.91
2017-08-16T06:14:33.122Z,1014.88
2017-08-16T06:15:14.017Z,1014.88
2017-08-16T06:15:54.919Z,1014.92
2017-08-16T06:16:35.809Z,1014.91
2017-08-16T06:17:16.707Z,1014.89
2017-08-16T06:17:57.611Z,1014.93
2017-08-16T06:18:38.494Z,1014.95
2017-08-16T06:19:19.385Z,1014.95
2017-08-16T06:20:00.276Z,1014.95
2017-08-16T06:20:41.170Z,1014.96
2017-08-16T06:21:22.048Z,1014.95
2017-08-16T06:22:02.936Z,1014.97
2017-08-16T06:22:43.835Z,1014.98
2017-08-16T06:23:24.720Z,1014.98
2017-08-16T06:24:05.614Z,1014.99
2017-08-16T06:24:46.493Z,1015.01
2017-08-16T06:25:27.388Z,1015
2017-08-16T06:26:08.276Z,1015.03
2017-08-16T06:26:49.169Z,1015.03
2017-08-16T06:27:30.058Z,1015.03
2017-08-16T06:28:10.953Z,1015.03
2017-08-16T06:28:51.835Z,1015.07
2017-08-16T06:29:32.736Z,1015.06
2017-08-16T06:30:13.627Z,1015.06
2017-08-16T06:30:54.512Z,1015.11
2017-08-16T06:31:35.402Z,1015.11
2017-08-16T06:32:16.306Z,1015.11
2017-08-16T06:32:57.181Z,1015.08
2017-08-16T06:33:38.068Z,1015.12
2017-08-16T06:34:18.987Z,1015.09
2017-08-16T06:34:59.883Z,1015.11
2017-08-16T06:35:40.768Z,1015.11
2017-08-16T06:36:21.663Z,1015.11
2017-08-16T06:37:02.548Z,1015.12
2017-08-16T06:37:43.480Z,1015.09
2017-08-16T06:38:24.361Z,1015.14
2017-08-16T06:39:05.257Z,1015.15
2017-08-16T06:39:46.144Z,1015.17
2017-08-16T06:40:27.036Z,1015.16
2017-08-16T06:41:07.900Z,1015.17
2017-08-16T06:41:48.820Z,1015.19
2017-08-16T06:42:29.707Z,1015.19
2017-08-16T06:43:10.599Z,1015.22
2017-08-16T06:43:51.494Z,1015.23
2017-08-16T06:44:32.397Z,1015.23
2017-08-16T06:45:13.261Z,1015.24
2017-08-16T06:45:54.159Z,1015.28
2017-08-16T06:46:35.046Z,1015.26
2017-08-16T06:47:15.986Z,1015.26
2017-08-16T06:47:56.883Z,1015.31
2017-08-16T06:48:37.778Z,1015.31
2017-08-16T06:49:18.663Z,1015.31
2017-08-16T06:49:59.598Z,1015.32
2017-08-16T06:50:40.497Z,1015.29
2017-08-16T06:51:21.387Z,1015.32
2017-08-16T06:52:02.286Z,1015.34
2017-08-16T06:52:43.219Z,1015.41
2017-08-16T06:53:24.118Z,1015.39
2017-08-16T06:54:05.004Z,1015.42
2017-08-16T06:54:45.898Z,1015.45
2017-08-16T06:55:26.796Z,1015.45
2017-08-16T06:56:07.687Z,1015.52
2017-08-16T06:56:48.580Z,1015.5
2017-08-16T06:57:29.496Z,1015.48
2017-08-16T06:58:10.359Z,1015.49
2017-08-16T06:58:51.303Z,1015.5
2017-08-16T06:59:32.183Z,1015.53
2017-08-16T07:00:13.087Z,1015.51
2017-08-16T07:00:53.988Z,1015.49
2017-08-16T07:01:34.880Z,1015.49
2017-08-16T07:02:15.776Z,1015.47
2017-08-16T07:02:56.663Z,1015.5
2017-08-16T07:03:37.546Z,1015.51
2017-08-16T07:04:18.437Z,1015.51
2017-08-16T07:04:59.350Z,1015.5
2017-08-16T07:05:40.227Z,1015.5
2017-08-16T07:06:21.131Z,1015.53
2017-08-16T07:07:02.020Z,1015.52
2017-08-16T07:07:42.904Z,1015.55
2017-08-16T07:08:23.798Z,1015.54
2017-08-16T07:09:04.693Z,1015.57
2017-08-16T07:09:45.582Z,1015.56
2017-08-16T07:10:26.477Z,1015.55
2017-08-16T07:11:07.376Z,1015.61
2017-08-16T07:11:48.254Z,1015.62
2017-08-16T07:12:29.151Z,1015.58
2017-08-16T07:13:10.043Z,1015.61
2017-08-16T07:13:50.938Z,1015.61
2017-08-16T07:14:31.834Z,1015.58
2017-08-16T07:16:25.504Z,1015.62
2017-08-16T07:17:06.385Z,1015.65
2017-08-16T07:17:47.270Z,1015.61
2017-08-16T07:18:28.180Z,1015.65
2017-08-16T07:19:09.063Z,1015.65
2017-08-16T07:19:49.992Z,1015.69
2017-08-16T07:20:30.876Z,1015.66
2017-08-16T07:21:11.767Z,1015.66
2017-08-16T07:21:52.686Z,1015.71
2017-08-16T07:22:33.573Z,1015.7
2017-08-16T07:23:14.497Z,1015.68
2017-08-16T07:23:55.335Z,1015.71
2017-08-16T07:24:36.229Z,1015.7
2017-08-16T07:25:17.109Z,1015.69
2017-08-16T07:25:58.000Z,1015.73
2017-08-16T07:26:38.890Z,1015.72
2017-08-16T07:27:19.792Z,1015.72
2017-08-16T07:28:00.671Z,1015.71
2017-08-16T07:28:41.588Z,1015.8
2017-08-16T07:29:22.448Z,1015.78
2017-08-16T07:30:03.342Z,1015.81
2017-08-16T07:30:44.388Z,1015.79
2017-08-16T07:31:25.325Z,1015.82
2017-08-16T07:32:06.200Z,1015.83
2017-08-16T07:32:47.091Z,1015.87
2017-08-16T07:33:27.995Z,1015.86
2017-08-16T07:34:08.863Z,1015.88
2017-08-16T07:34:49.757Z,1015.87
2017-08-16T07:35:30.647Z,1015.86
2017-08-16T07:36:11.533Z,1015.85
2017-08-16T07:36:52.425Z,1015.88
2017-08-16T07:37:33.314Z,1015.91
2017-08-16T07:38:14.213Z,1015.91
2017-08-16T07:38:55.100Z,1015.95
2017-08-16T07:39:35.995Z,1015.9
2017-08-16T07:40:16.890Z,1015.95
2017-08-16T07:40:57.777Z,1015.97
2017-08-16T07:41:38.668Z,1016
2017-08-16T07:42:19.555Z,1016
2017-08-16T07:43:00.436Z,1016.01
2017-08-16T07:43:41.328Z,1016.03
2017-08-16T07:44:22.223Z,1016.05
2017-08-16T07:45:03.108Z,1016.05
2017-08-16T07:45:43.991Z,1016.07
2017-08-16T07:46:24.887Z,1016.08
2017-08-16T07:47:05.771Z,1016.06
2017-08-16T07:47:46.700Z,1016.1
2017-08-16T07:48:27.584Z,1016.1
2017-08-16T07:49:08.465Z,1016.07
2017-08-16T07:49:49.406Z,1016.1
2017-08-16T07:50:30.302Z,1016.13
2017-08-16T07:51:11.196Z,1016.14
2017-08-16T07:51:52.087Z,1016.15
2017-08-16T07:52:32.979Z,1016.16
2017-08-16T07:53:13.875Z,1016.2
2017-08-16T07:53:54.771Z,1016.16
2017-08-16T07:54:35.666Z,1016.16
2017-08-16T07:55:16.573Z,1016.19
2017-08-16T07:55:57.511Z,1016.18
2017-08-16T07:56:38.396Z,1016.22
2017-08-16T07:57:19.282Z,1016.24
2017-08-16T07:58:00.175Z,1016.27
2017-08-16T07:58:41.069Z,1016.25
2017-08-16T07:59:21.959Z,1016.3
2017-08-16T08:00:02.855Z,1016.32
2017-08-16T08:00:43.748Z,1016.34
2017-08-16T08:01:24.643Z,1016.4
2017-08-16T08:02:05.556Z,1016.41
2017-08-16T08:02:46.439Z,1016.39
2017-08-16T08:03:27.339Z,1016.45
2017-08-16T08:04:08.234Z,1016.46
2017-08-16T08:04:49.133Z,1016.48
2017-08-16T08:05:30.024Z,1016.5
2017-08-16T08:06:10.918Z,1016.55
2017-08-16T08:06:51.800Z,1016.57
2017-08-16T08:07:32.707Z,1016.58
2017-08-16T08:08:13.598Z,1016.57
2017-08-16T08:08:54.478Z,1016.6
2017-08-16T08:09:35.378Z,1016.65
2017-08-16T08:10:16.255Z,1016.68
2017-08-16T08:10:57.140Z,1016.64
2017-08-16T08:11:38.036Z,1016.66
2017-08-16T08:12:18.971Z,1016.66
2017-08-16T08:12:59.868Z,1016.68
2017-08-16T08:13:40.802Z,1016.69
2017-08-16T08:14:21.690Z,1016.75
2017-08-16T08:15:02.572Z,1016.73
2017-08-16T08:15:43.456Z,1016.77
2017-08-16T08:16:24.358Z,1016.75
2017-08-16T08:17:05.245Z,1016.79
2017-08-16T08:17:46.127Z,1016.84
2017-08-16T08:18:27.029Z,1016.83
2017-08-16T08:19:07.923Z,1016.87